Sun Universe — 3FOQ4 — position and weather

sailwx.info

Track history (hours):
 
Tides and Currents Weather Stations Pressure Air Temp Water Temp Dewpoint Dewpoint Depression Visibility Wind Speed Wind Dir Waves Ship Positions

Sun Universe

Last reported at 2016-May-24 21:20 UTC. Time now 2016-May-26 14:31 UTC.
Position N 34°10' E 138°08'.

Length 116 m; draft 7.9 m.

Type: Cargo ship. MMSI: 371647000.

Date/timePositionNaut miles runAvg speedWind from/ knotsBaromVisibWave heightAir tempDewpointWater temp
2016-May-24 21:20N 34°10' E 138°08'7111.9
2016-May-24 15:24N 34°50' E 139°20'1011.6
2016-May-24 14:34N 34°56' E 139°28'1212.3
2016-May-24 13:34N 35°03' E 139°41'1211.9
2016-May-24 12:33N 35°14' E 139°46'1010.1
2016-May-24 11:33N 35°24' E 139°42'3 3.1
2016-May-24 10:33N 35°27' E 139°40'0 0.0
2016-May-24 09:33N 35°27' E 139°40'0 0.0
2016-May-24 08:33N 35°27' E 139°40'0 0.0
2016-May-24 07:33N 35°27' E 139°40'0 0.0
2016-May-24 06:33N 35°27' E 139°40'0 0.0
2016-May-24 05:33N 35°27' E 139°40'0 0.0
2016-May-24 04:33N 35°27' E 139°40'0 0.0
2016-May-24 03:33N 35°27' E 139°40'0 0.0
2016-May-24 02:33N 35°27' E 139°40'0 0.0
2016-May-24 01:33N 35°27' E 139°40'0 0.0
2016-May-24 00:33N 35°27' E 139°40'0 0.0
2016-May-23 23:33N 35°27' E 139°40'0 0.0
2016-May-23 22:33N 35°27' E 139°40'0 0.0
2016-May-23 21:33N 35°27' E 139°40'0 0.0
2016-May-23 20:33N 35°27' E 139°40'0 0.0
2016-May-23 19:33N 35°27' E 139°40'0 0.0
2016-May-23 18:33N 35°27' E 139°40'0 0.0
2016-May-23 17:33N 35°27' E 139°40'0 0.0
2016-May-23 16:33N 35°27' E 139°40'0 0.0
2016-May-23 15:33N 35°27' E 139°40'0 0.0
2016-May-23 14:33N 35°27' E 139°40'0 0.0
2016-May-23 13:33N 35°27' E 139°40'0 0.0
2016-May-23 12:33N 35°27' E 139°40'0 0.0
2016-May-23 11:33N 35°27' E 139°40'0 0.0
2016-May-23 10:33N 35°27' E 139°40'0 0.0
2016-May-23 09:33N 35°27' E 139°40'0 0.0
2016-May-23 08:33N 35°27' E 139°40'0 0.0
2016-May-23 07:33N 35°27' E 139°40'0 0.0
2016-May-23 06:33N 35°27' E 139°40'0 0.0
2016-May-23 05:33N 35°27' E 139°40'1 1.2
2016-May-23 04:33N 35°27' E 139°42'1 1.3
2016-May-23 03:33N 35°27' E 139°43'0 0.1
2016-May-23 02:33N 35°27' E 139°43'0 0.1
2016-May-23 01:33N 35°26' E 139°43'0 0.0
2016-May-23 00:33N 35°26' E 139°43'0 0.0
2016-May-22 23:33N 35°26' E 139°43'0 0.0
2016-May-22 22:33N 35°26' E 139°43'0 0.0
2016-May-22 21:33N 35°26' E 139°43'0 0.1
2016-May-22 20:33N 35°27' E 139°43'0 0.1
2016-May-22 19:33N 35°27' E 139°43'0 0.0
2016-May-22 18:33N 35°27' E 139°43'0 0.0
2016-May-22 17:33N 35°27' E 139°43'0 0.0
2016-May-22 16:33N 35°27' E 139°43'0 0.1
2016-May-22 15:33N 35°26' E 139°43'0 0.0
2016-May-22 14:33N 35°26' E 139°43'0 0.0
2016-May-22 13:33N 35°26' E 139°43'0 0.0
2016-May-22 12:33N 35°26' E 139°43'0 0.0
2016-May-22 11:30N 35°26' E 139°43'0 0.0
2016-May-22 10:33N 35°26' E 139°43'0 0.0
2016-May-22 09:33N 35°26' E 139°43'0 0.0
2016-May-22 08:33N 35°27' E 139°43'1 0.5
2016-May-22 07:31N 35°26' E 139°43'3 3.4
2016-May-22 06:33N 35°27' E 139°47'1010.3
2016-May-22 05:34N 35°32' E 139°57'7 7.3
2016-May-22 04:33N 35°35' E 140°06'0 0.0
2016-May-22 03:33N 35°35' E 140°06'0 0.0
2016-May-22 02:33N 35°35' E 140°06'0 0.0
2016-May-22 01:30N 35°35' E 140°06'0 0.0
2016-May-22 00:33N 35°35' E 140°06'0 0.0
2016-May-21 23:33N 35°35' E 140°06'0 0.0
2016-May-21 22:31N 35°35' E 140°06'0 0.0
2016-May-21 21:30N 35°35' E 140°06'0 0.0
2016-May-21 20:34N 35°35' E 140°06'0 0.0
2016-May-21 19:33N 35°35' E 140°06'0 0.0
2016-May-21 18:30N 35°35' E 140°06'0 0.0
2016-May-21 17:30N 35°35' E 140°06'0 0.0
2016-May-21 16:30N 35°35' E 140°06'0 0.0
2016-May-21 15:33N 35°35' E 140°06'0 0.0
2016-May-21 14:33N 35°35' E 140°06'0 0.0
2016-May-21 13:27N 35°35' E 140°06'0 0.0
2016-May-21 12:30N 35°35' E 140°06'0 0.0
2016-May-21 11:30N 35°35' E 140°06'0 0.0
2016-May-21 10:24N 35°35' E 140°06'0 0.0
2016-May-21 09:30N 35°35' E 140°06'0 0.0
2016-May-21 08:33N 35°35' E 140°06'0 0.0
2016-May-21 07:30N 35°35' E 140°06'0 0.0
2016-May-21 06:33N 35°35' E 140°06'0 0.0
2016-May-21 05:24N 35°35' E 140°06'0 0.0
2016-May-21 04:33N 35°35' E 140°06'0 0.0
2016-May-21 03:33N 35°35' E 140°06'0 0.0
2016-May-21 02:33N 35°35' E 140°06'0 0.0
2016-May-21 01:33N 35°35' E 140°06'0 0.0
2016-May-21 00:33N 35°35' E 140°06'0 0.0
2016-May-20 23:30N 35°35' E 140°06'0 0.0
2016-May-20 22:30N 35°35' E 140°06'0 0.0
2016-May-20 21:33N 35°35' E 140°06'0 0.0
2016-May-20 20:30N 35°35' E 140°06'0 0.0
2016-May-20 19:27N 35°35' E 140°06'0 0.0
2016-May-20 18:34N 35°35' E 140°06'0 0.0
2016-May-20 17:30N 35°35' E 140°06'0 0.0
2016-May-20 16:33N 35°35' E 140°06'0 0.0
2016-May-20 15:33N 35°35' E 140°06'0 0.0
2016-May-20 14:33N 35°35' E 140°06'0 0.0
2016-May-20 13:30N 35°35' E 140°06'0 0.0
2016-May-20 12:30N 35°35' E 140°06'0 0.0
2016-May-20 11:34N 35°35' E 140°06'0 0.0
2016-May-20 10:33N 35°35' E 140°06'0 0.0
2016-May-20 09:30N 35°35' E 140°06'0 0.0
2016-May-20 08:30N 35°35' E 140°06'0 0.0
2016-May-20 07:34N 35°35' E 140°06'0 0.0
2016-May-20 06:30N 35°35' E 140°06'0 0.0
2016-May-20 05:33N 35°35' E 140°06'0 0.0
2016-May-20 04:30N 35°35' E 140°06'0 0.0
2016-May-20 03:30N 35°35' E 140°06'0 0.0
2016-May-20 02:33N 35°35' E 140°06'0 0.0
2016-May-20 01:33N 35°35' E 140°06'0 0.0
2016-May-20 00:33N 35°35' E 140°06'0 0.0
2016-May-19 23:27N 35°35' E 140°06'0 0.0
2016-May-19 22:34N 35°35' E 140°06'0 0.0
2016-May-19 21:33N 35°35' E 140°06'0 0.0
2016-May-19 20:34N 35°35' E 140°06'0 0.0
2016-May-19 19:33N 35°35' E 140°06'0 0.0
2016-May-19 18:33N 35°35' E 140°06'0 0.0
2016-May-19 17:30N 35°35' E 140°06'0 0.0
2016-May-19 16:24N 35°35' E 140°06'0 0.0
2016-May-19 15:24N 35°35' E 140°06'0 0.0
2016-May-19 14:33N 35°35' E 140°06'0 0.0
2016-May-19 13:30N 35°35' E 140°06'0 0.0
2016-May-19 12:30N 35°35' E 140°06'0 0.0
2016-May-19 11:30N 35°35' E 140°06'0 0.0
2016-May-19 10:33N 35°35' E 140°06'0 0.0
2016-May-19 09:30N 35°35' E 140°06'0 0.0
2016-May-19 08:30N 35°35' E 140°06'0 0.0
2016-May-19 07:30N 35°35' E 140°06'0 0.0
2016-May-19 06:33N 35°35' E 140°06'0 0.0
2016-May-19 05:30N 35°35' E 140°06'0 0.0
2016-May-19 04:33N 35°35' E 140°06'0 0.0
2016-May-19 03:27N 35°35' E 140°06'0 0.0
2016-May-19 02:33N 35°35' E 140°06'0 0.0
2016-May-19 01:33N 35°35' E 140°06'0 0.0
2016-May-19 00:30N 35°35' E 140°06'0 0.1
2016-May-18 23:33N 35°35' E 140°05'3 3.2
2016-May-18 22:33N 35°34' E 140°02'1 1.3
2016-May-18 21:33N 35°34' E 140°00'0 0.0
2016-May-18 20:33N 35°34' E 140°00'0 0.0
2016-May-18 19:33N 35°34' E 140°00'0 0.0
2016-May-18 18:33N 35°34' E 140°00'0 0.0
2016-May-18 17:27N 35°34' E 140°00'0 0.0
2016-May-18 16:33N 35°34' E 140°00'0 0.0
2016-May-18 15:27N 35°34' E 140°00'0 0.0
2016-May-18 14:33N 35°34' E 140°00'0 0.0
2016-May-18 13:33N 35°34' E 140°00'0 0.0
2016-May-18 12:33N 35°34' E 140°00'0 0.1
2016-May-18 11:33N 35°34' E 140°00'0 0.0
2016-May-18 10:24N 35°34' E 140°00'0 0.0
2016-May-18 09:33N 35°34' E 140°00'0 0.0
2016-May-18 08:33N 35°34' E 140°00'0 0.0
2016-May-18 07:33N 35°34' E 140°00'0 0.0
2016-May-18 06:33N 35°34' E 140°00'0 0.1
2016-May-18 05:33N 35°34' E 140°00'0 0.0
2016-May-18 04:33N 35°34' E 140°00'0 0.0
2016-May-18 03:30N 35°34' E 140°00'0 0.0
2016-May-18 02:33N 35°34' E 140°00'0 0.1
2016-May-18 01:33N 35°34' E 140°00'0 0.0
2016-May-18 00:33N 35°34' E 140°00'0 0.0
2016-May-17 23:33N 35°34' E 140°00'0 0.0
2016-May-17 22:33N 35°34' E 140°00'0 0.0
2016-May-17 21:33N 35°34' E 140°00'0 0.0
2016-May-17 20:33N 35°34' E 140°00'0 0.0
2016-May-17 19:33N 35°34' E 140°00'0 0.0
2016-May-17 18:33N 35°34' E 140°00'0 0.0
2016-May-17 17:33N 35°34' E 140°00'0 0.0
2016-May-17 16:33N 35°34' E 140°00'0 0.0
2016-May-17 15:33N 35°34' E 140°00'0 0.0
2016-May-17 14:30N 35°34' E 140°00'0 0.0
2016-May-17 13:33N 35°34' E 140°00'0 0.0
2016-May-17 12:33N 35°34' E 140°00'0 0.0
2016-May-17 11:33N 35°34' E 140°00'0 0.0
2016-May-17 10:33N 35°34' E 140°00'0 0.0
2016-May-17 09:33N 35°34' E 140°00'0 0.0
2016-May-17 08:33N 35°34' E 140°00'0 0.1
2016-May-17 07:33N 35°34' E 140°00'0 0.0
2016-May-17 06:33N 35°34' E 140°00'0 0.0
2016-May-17 05:27N 35°34' E 140°00'0 0.1
2016-May-17 04:33N 35°34' E 140°00'0 0.0
2016-May-17 03:33N 35°34' E 140°00'0 0.0
2016-May-17 02:27N 35°34' E 140°00'0 0.0
2016-May-17 01:21N 35°34' E 140°00'0 0.0
2016-May-17 00:33N 35°34' E 140°00'0 0.1
2016-May-16 23:33N 35°34' E 140°00'0 0.1
2016-May-16 22:29N 35°34' E 140°00'0 0.0
2016-May-16 21:32N 35°34' E 140°00'0 0.0
2016-May-16 20:33N 35°34' E 140°00'0 0.0
2016-May-16 19:31N 35°34' E 140°00'0 0.0
2016-May-16 18:31N 35°34' E 140°00'0 0.1
2016-May-16 17:32N 35°34' E 140°00'0 0.0
2016-May-16 16:31N 35°34' E 140°00'0 0.0
2016-May-16 15:31N 35°34' E 140°00'0 0.1
2016-May-16 14:34N 35°34' E 140°00'0 0.0
2016-May-16 13:32N 35°34' E 140°00'0 0.0
2016-May-16 12:33N 35°34' E 140°00'0 0.0
2016-May-16 11:32N 35°34' E 140°00'0 0.0
2016-May-16 10:30N 35°34' E 140°00'0 0.0
2016-May-16 09:32N 35°34' E 140°00'0 0.0
2016-May-16 08:30N 35°34' E 140°00'0 0.0
2016-May-16 07:29N 35°34' E 140°00'0 0.0
2016-May-16 06:33N 35°34' E 140°00'0 0.0
2016-May-16 05:28N 35°34' E 140°00'0 0.0
2016-May-16 04:04N 35°34' E 140°00'0 0.0
2016-May-16 03:22N 35°34' E 140°00'0 0.2
2016-May-16 02:33N 35°34' E 140°00'6 6.1
2016-May-16 01:33N 35°31' E 139°54'1111.4
2016-May-16 00:33N 35°22' E 139°45'1010.3
2016-May-15 23:33N 35°12' E 139°47'8 7.8
2016-May-15 22:33N 35°04' E 139°44'1312.5
2016-May-15 21:33N 34°52' E 139°38'1812.3
2016-May-15 20:06N 34°35' E 139°35'2413.7
2016-May-15 18:21N 34°15' E 139°50'2812.9
2016-May-15 16:10N 33°51' E 140°09'1 1.8
2016-May-15 15:25N 33°51' E 140°11'14 2.0
2016-May-15 08:22N 34°04' E 140°18'2 1.5
2016-May-15 07:04N 34°06' E 140°19'4 1.4
2016-May-15 04:25N 34°10' E 140°20'5 1.5
2016-May-15 01:19N 34°14' E 140°21'1012.1
2016-May-15 00:28N 34°22' E 140°13'1213.0
2016-May-14 23:33N 34°32' E 140°05'1211.6
2016-May-14 22:33N 34°40' E 139°55'1 0.9
2016-May-14 21:32N 34°39' E 139°55'  
Track history (hours):
 
Tides and Currents Weather Stations Pressure Air Temp Water Temp Dewpoint Dewpoint Depression Visibility Wind Speed Wind Dir Waves Ship Positions

Sun Universe

Last reported at 2016-May-24 21:20 UTC. Time now 2016-May-26 14:31 UTC.
Position N 34°10' E 138°08'.

Length 116 m; draft 7.9 m.

Type: Cargo ship. MMSI: 371647000.

Date/timePositionNaut miles runAvg speedWind from/ knotsBaromVisibWave heightAir tempDewpointWater temp
2016-May-24 21:20N 34°10' E 138°08'7111.9
2016-May-24 15:24N 34°50' E 139°20'1011.6
2016-May-24 14:34N 34°56' E 139°28'1212.3
2016-May-24 13:34N 35°03' E 139°41'1211.9
2016-May-24 12:33N 35°14' E 139°46'1010.1
2016-May-24 11:33N 35°24' E 139°42'3 3.1
2016-May-24 10:33N 35°27' E 139°40'0 0.0
2016-May-24 09:33N 35°27' E 139°40'0 0.0
2016-May-24 08:33N 35°27' E 139°40'0 0.0
2016-May-24 07:33N 35°27' E 139°40'0 0.0
2016-May-24 06:33N 35°27' E 139°40'0 0.0
2016-May-24 05:33N 35°27' E 139°40'0 0.0
2016-May-24 04:33N 35°27' E 139°40'0 0.0
2016-May-24 03:33N 35°27' E 139°40'0 0.0
2016-May-24 02:33N 35°27' E 139°40'0 0.0
2016-May-24 01:33N 35°27' E 139°40'0 0.0
2016-May-24 00:33N 35°27' E 139°40'0 0.0
2016-May-23 23:33N 35°27' E 139°40'0 0.0
2016-May-23 22:33N 35°27' E 139°40'0 0.0
2016-May-23 21:33N 35°27' E 139°40'0 0.0
2016-May-23 20:33N 35°27' E 139°40'0 0.0
2016-May-23 19:33N 35°27' E 139°40'0 0.0
2016-May-23 18:33N 35°27' E 139°40'0 0.0
2016-May-23 17:33N 35°27' E 139°40'0 0.0
2016-May-23 16:33N 35°27' E 139°40'0 0.0
2016-May-23 15:33N 35°27' E 139°40'0 0.0
2016-May-23 14:33N 35°27' E 139°40'0 0.0
2016-May-23 13:33N 35°27' E 139°40'0 0.0
2016-May-23 12:33N 35°27' E 139°40'0 0.0
2016-May-23 11:33N 35°27' E 139°40'0 0.0
2016-May-23 10:33N 35°27' E 139°40'0 0.0
2016-May-23 09:33N 35°27' E 139°40'0 0.0
2016-May-23 08:33N 35°27' E 139°40'0 0.0
2016-May-23 07:33N 35°27' E 139°40'0 0.0
2016-May-23 06:33N 35°27' E 139°40'0 0.0
2016-May-23 05:33N 35°27' E 139°40'1 1.2
2016-May-23 04:33N 35°27' E 139°42'1 1.3
2016-May-23 03:33N 35°27' E 139°43'0 0.1
2016-May-23 02:33N 35°27' E 139°43'0 0.1
2016-May-23 01:33N 35°26' E 139°43'0 0.0
2016-May-23 00:33N 35°26' E 139°43'0 0.0
2016-May-22 23:33N 35°26' E 139°43'0 0.0
2016-May-22 22:33N 35°26' E 139°43'0 0.0
2016-May-22 21:33N 35°26' E 139°43'0 0.1
2016-May-22 20:33N 35°27' E 139°43'0 0.1
2016-May-22 19:33N 35°27' E 139°43'0 0.0
2016-May-22 18:33N 35°27' E 139°43'0 0.0
2016-May-22 17:33N 35°27' E 139°43'0 0.0
2016-May-22 16:33N 35°27' E 139°43'0 0.1
2016-May-22 15:33N 35°26' E 139°43'0 0.0
2016-May-22 14:33N 35°26' E 139°43'0 0.0
2016-May-22 13:33N 35°26' E 139°43'0 0.0
2016-May-22 12:33N 35°26' E 139°43'0 0.0
2016-May-22 11:30N 35°26' E 139°43'0 0.0
2016-May-22 10:33N 35°26' E 139°43'0 0.0
2016-May-22 09:33N 35°26' E 139°43'0 0.0
2016-May-22 08:33N 35°27' E 139°43'1 0.5
2016-May-22 07:31N 35°26' E 139°43'3 3.4
2016-May-22 06:33N 35°27' E 139°47'1010.3
2016-May-22 05:34N 35°32' E 139°57'7 7.3
2016-May-22 04:33N 35°35' E 140°06'0 0.0
2016-May-22 03:33N 35°35' E 140°06'0 0.0
2016-May-22 02:33N 35°35' E 140°06'0 0.0
2016-May-22 01:30N 35°35' E 140°06'0 0.0
2016-May-22 00:33N 35°35' E 140°06'0 0.0
2016-May-21 23:33N 35°35' E 140°06'0 0.0
2016-May-21 22:31N 35°35' E 140°06'0 0.0
2016-May-21 21:30N 35°35' E 140°06'0 0.0
2016-May-21 20:34N 35°35' E 140°06'0 0.0
2016-May-21 19:33N 35°35' E 140°06'0 0.0
2016-May-21 18:30N 35°35' E 140°06'0 0.0
2016-May-21 17:30N 35°35' E 140°06'0 0.0
2016-May-21 16:30N 35°35' E 140°06'0 0.0
2016-May-21 15:33N 35°35' E 140°06'0 0.0
2016-May-21 14:33N 35°35' E 140°06'0 0.0
2016-May-21 13:27N 35°35' E 140°06'0 0.0
2016-May-21 12:30N 35°35' E 140°06'0 0.0
2016-May-21 11:30N 35°35' E 140°06'0 0.0
2016-May-21 10:24N 35°35' E 140°06'0 0.0
2016-May-21 09:30N 35°35' E 140°06'0 0.0
2016-May-21 08:33N 35°35' E 140°06'0 0.0
2016-May-21 07:30N 35°35' E 140°06'0 0.0
2016-May-21 06:33N 35°35' E 140°06'0 0.0
2016-May-21 05:24N 35°35' E 140°06'0 0.0
2016-May-21 04:33N 35°35' E 140°06'0 0.0
2016-May-21 03:33N 35°35' E 140°06'0 0.0
2016-May-21 02:33N 35°35' E 140°06'0 0.0
2016-May-21 01:33N 35°35' E 140°06'0 0.0
2016-May-21 00:33N 35°35' E 140°06'0 0.0
2016-May-20 23:30N 35°35' E 140°06'0 0.0
2016-May-20 22:30N 35°35' E 140°06'0 0.0
2016-May-20 21:33N 35°35' E 140°06'0 0.0
2016-May-20 20:30N 35°35' E 140°06'0 0.0
2016-May-20 19:27N 35°35' E 140°06'0 0.0
2016-May-20 18:34N 35°35' E 140°06'0 0.0
2016-May-20 17:30N 35°35' E 140°06'0 0.0
2016-May-20 16:33N 35°35' E 140°06'0 0.0
2016-May-20 15:33N 35°35' E 140°06'0 0.0
2016-May-20 14:33N 35°35' E 140°06'0 0.0
2016-May-20 13:30N 35°35' E 140°06'0 0.0
2016-May-20 12:30N 35°35' E 140°06'0 0.0
2016-May-20 11:34N 35°35' E 140°06'0 0.0
2016-May-20 10:33N 35°35' E 140°06'0 0.0
2016-May-20 09:30N 35°35' E 140°06'0 0.0
2016-May-20 08:30N 35°35' E 140°06'0 0.0
2016-May-20 07:34N 35°35' E 140°06'0 0.0
2016-May-20 06:30N 35°35' E 140°06'0 0.0
2016-May-20 05:33N 35°35' E 140°06'0 0.0
2016-May-20 04:30N 35°35' E 140°06'0 0.0
2016-May-20 03:30N 35°35' E 140°06'0 0.0
2016-May-20 02:33N 35°35' E 140°06'0 0.0
2016-May-20 01:33N 35°35' E 140°06'0 0.0
2016-May-20 00:33N 35°35' E 140°06'0 0.0
2016-May-19 23:27N 35°35' E 140°06'0 0.0
2016-May-19 22:34N 35°35' E 140°06'0 0.0
2016-May-19 21:33N 35°35' E 140°06'0 0.0
2016-May-19 20:34N 35°35' E 140°06'0 0.0
2016-May-19 19:33N 35°35' E 140°06'0 0.0
2016-May-19 18:33N 35°35' E 140°06'0 0.0
2016-May-19 17:30N 35°35' E 140°06'0 0.0
2016-May-19 16:24N 35°35' E 140°06'0 0.0
2016-May-19 15:24N 35°35' E 140°06'0 0.0
2016-May-19 14:33N 35°35' E 140°06'0 0.0
2016-May-19 13:30N 35°35' E 140°06'0 0.0
2016-May-19 12:30N 35°35' E 140°06'0 0.0
2016-May-19 11:30N 35°35' E 140°06'0 0.0
2016-May-19 10:33N 35°35' E 140°06'0 0.0
2016-May-19 09:30N 35°35' E 140°06'0 0.0
2016-May-19 08:30N 35°35' E 140°06'0 0.0
2016-May-19 07:30N 35°35' E 140°06'0 0.0
2016-May-19 06:33N 35°35' E 140°06'0 0.0
2016-May-19 05:30N 35°35' E 140°06'0 0.0
2016-May-19 04:33N 35°35' E 140°06'0 0.0
2016-May-19 03:27N 35°35' E 140°06'0 0.0
2016-May-19 02:33N 35°35' E 140°06'0 0.0
2016-May-19 01:33N 35°35' E 140°06'0 0.0
2016-May-19 00:30N 35°35' E 140°06'0 0.1
2016-May-18 23:33N 35°35' E 140°05'3 3.2
2016-May-18 22:33N 35°34' E 140°02'1 1.3
2016-May-18 21:33N 35°34' E 140°00'0 0.0
2016-May-18 20:33N 35°34' E 140°00'0 0.0
2016-May-18 19:33N 35°34' E 140°00'0 0.0
2016-May-18 18:33N 35°34' E 140°00'0 0.0
2016-May-18 17:27N 35°34' E 140°00'0 0.0
2016-May-18 16:33N 35°34' E 140°00'0 0.0
2016-May-18 15:27N 35°34' E 140°00'0 0.0
2016-May-18 14:33N 35°34' E 140°00'0 0.0
2016-May-18 13:33N 35°34' E 140°00'0 0.0
2016-May-18 12:33N 35°34' E 140°00'0 0.1
2016-May-18 11:33N 35°34' E 140°00'0 0.0
2016-May-18 10:24N 35°34' E 140°00'0 0.0
2016-May-18 09:33N 35°34' E 140°00'0 0.0
2016-May-18 08:33N 35°34' E 140°00'0 0.0
2016-May-18 07:33N 35°34' E 140°00'0 0.0
2016-May-18 06:33N 35°34' E 140°00'0 0.1
2016-May-18 05:33N 35°34' E 140°00'0 0.0
2016-May-18 04:33N 35°34' E 140°00'0 0.0
2016-May-18 03:30N 35°34' E 140°00'0 0.0
2016-May-18 02:33N 35°34' E 140°00'0 0.1
2016-May-18 01:33N 35°34' E 140°00'0 0.0
2016-May-18 00:33N 35°34' E 140°00'0 0.0
2016-May-17 23:33N 35°34' E 140°00'0 0.0
2016-May-17 22:33N 35°34' E 140°00'0 0.0
2016-May-17 21:33N 35°34' E 140°00'0 0.0
2016-May-17 20:33N 35°34' E 140°00'0 0.0
2016-May-17 19:33N 35°34' E 140°00'0 0.0
2016-May-17 18:33N 35°34' E 140°00'0 0.0
2016-May-17 17:33N 35°34' E 140°00'0 0.0
2016-May-17 16:33N 35°34' E 140°00'0 0.0
2016-May-17 15:33N 35°34' E 140°00'0 0.0
2016-May-17 14:30N 35°34' E 140°00'0 0.0
2016-May-17 13:33N 35°34' E 140°00'0 0.0
2016-May-17 12:33N 35°34' E 140°00'0 0.0
2016-May-17 11:33N 35°34' E 140°00'0 0.0
2016-May-17 10:33N 35°34' E 140°00'0 0.0
2016-May-17 09:33N 35°34' E 140°00'0 0.0
2016-May-17 08:33N 35°34' E 140°00'0 0.1
2016-May-17 07:33N 35°34' E 140°00'0 0.0
2016-May-17 06:33N 35°34' E 140°00'0 0.0
2016-May-17 05:27N 35°34' E 140°00'0 0.1
2016-May-17 04:33N 35°34' E 140°00'0 0.0
2016-May-17 03:33N 35°34' E 140°00'0 0.0
2016-May-17 02:27N 35°34' E 140°00'0 0.0
2016-May-17 01:21N 35°34' E 140°00'0 0.0
2016-May-17 00:33N 35°34' E 140°00'0 0.1
2016-May-16 23:33N 35°34' E 140°00'0 0.1
2016-May-16 22:29N 35°34' E 140°00'0 0.0
2016-May-16 21:32N 35°34' E 140°00'0 0.0
2016-May-16 20:33N 35°34' E 140°00'0 0.0
2016-May-16 19:31N 35°34' E 140°00'0 0.0
2016-May-16 18:31N 35°34' E 140°00'0 0.1
2016-May-16 17:32N 35°34' E 140°00'0 0.0
2016-May-16 16:31N 35°34' E 140°00'0 0.0
2016-May-16 15:31N 35°34' E 140°00'0 0.1
2016-May-16 14:34N 35°34' E 140°00'0 0.0
2016-May-16 13:32N 35°34' E 140°00'0 0.0
2016-May-16 12:33N 35°34' E 140°00'0 0.0
2016-May-16 11:32N 35°34' E 140°00'0 0.0
2016-May-16 10:30N 35°34' E 140°00'0 0.0
2016-May-16 09:32N 35°34' E 140°00'0 0.0
2016-May-16 08:30N 35°34' E 140°00'0 0.0
2016-May-16 07:29N 35°34' E 140°00'0 0.0
2016-May-16 06:33N 35°34' E 140°00'0 0.0
2016-May-16 05:28N 35°34' E 140°00'0 0.0
2016-May-16 04:04N 35°34' E 140°00'0 0.0
2016-May-16 03:22N 35°34' E 140°00'0 0.2
2016-May-16 02:33N 35°34' E 140°00'6 6.1
2016-May-16 01:33N 35°31' E 139°54'1111.4
2016-May-16 00:33N 35°22' E 139°45'1010.3
2016-May-15 23:33N 35°12' E 139°47'8 7.8
2016-May-15 22:33N 35°04' E 139°44'1312.5
2016-May-15 21:33N 34°52' E 139°38'1812.3
2016-May-15 20:06N 34°35' E 139°35'2413.7
2016-May-15 18:21N 34°15' E 139°50'2812.9
2016-May-15 16:10N 33°51' E 140°09'1 1.8
2016-May-15 15:25N 33°51' E 140°11'14 2.0
2016-May-15 08:22N 34°04' E 140°18'2 1.5
2016-May-15 07:04N 34°06' E 140°19'4 1.4
2016-May-15 04:25N 34°10' E 140°20'5 1.5
2016-May-15 01:19N 34°14' E 140°21'1012.1
2016-May-15 00:28N 34°22' E 140°13'1213.0
2016-May-14 23:33N 34°32' E 140°05'1211.6
2016-May-14 22:33N 34°40' E 139°55'1 0.9
2016-May-14 21:32N 34°39' E 139°55'  

Dump ship's entire track history